Time;durP1;ratioP1;P1;durP2;ratioP2;P2;SDS_P1;SDS_P2;PMS_P1;PMS_P2;Temp;Humidity;BMP_temperature;BMP_pressure;BME280_temperature;BME280_humidity;BME280_pressure;Samples;Min_cycle;Max_cycle;Signal;HPM_P1;HPM_P2
2024/01/27 00:00:09;;;;;;;2.23;2.10;;;;;2.00;97556.00;;;;5076027;28;20198;-58
2024/01/27 00:02:36;;;;;;;2.30;1.80;;;;;2.00;97564.00;;;;5055617;28;20226;-58
2024/01/27 00:05:06;;;;;;;1.70;1.60;;;;;1.90;97565.00;;;;5072960;28;20237;-57
2024/01/27 00:07:34;;;;;;;1.53;1.43;;;;;1.90;97564.00;;;;5074905;28;20219;-58
2024/01/27 00:10:02;;;;;;;1.30;1.30;;;;;1.80;97557.00;;;;5076163;28;20187;-58
2024/01/27 00:12:30;;;;;;;2.40;1.77;;;;;1.80;97564.00;;;;5077184;28;20226;-58
2024/01/27 00:14:57;;;;;;;3.37;1.57;;;;;1.70;97561.00;;;;5079057;28;20249;-58
2024/01/27 00:17:26;;;;;;;7.00;2.23;;;;;1.70;97563.00;;;;5077587;28;20191;-58
2024/01/27 00:19:53;;;;;;;1.57;1.47;;;;;1.50;97571.00;;;;5076877;28;20230;-58
2024/01/27 00:22:22;;;;;;;1.53;1.43;;;;;1.40;97569.00;;;;5077464;28;20222;-59
2024/01/27 00:24:50;;;;;;;1.77;1.67;;;;;1.50;97563.00;;;;5077263;28;20647;-58
2024/01/27 00:27:17;;;;;;;1.43;1.33;;;;;1.40;97577.00;;;;5076902;28;20199;-57
2024/01/27 00:29:45;;;;;;;5.53;2.47;;;;;1.40;97572.00;;;;5077302;28;20595;-58
2024/01/27 00:32:13;;;;;;;2.50;2.30;;;;;1.40;97573.00;;;;5076292;28;20251;-58
2024/01/27 00:34:40;;;;;;;5.10;2.23;;;;;1.50;97586.00;;;;5076657;28;20207;-58
2024/01/27 00:37:07;;;;;;;3.47;1.40;;;;;1.40;97587.00;;;;5076817;28;20195;-58
2024/01/27 00:39:36;;;;;;;5.07;3.00;;;;;1.10;97585.00;;;;5077031;28;20263;-58
2024/01/27 00:42:04;;;;;;;2.27;2.10;;;;;1.20;97584.00;;;;5076594;28;20212;-58
2024/01/27 00:44:34;;;;;;;1.03;1.03;;;;;1.20;97586.00;;;;5078485;28;20191;-58
2024/01/27 00:47:02;;;;;;;1.30;1.20;;;;;1.20;97593.00;;;;5076770;28;20725;-58
2024/01/27 00:49:29;;;;;;;1.40;1.13;;;;;1.10;97594.00;;;;5076795;28;20202;-58
2024/01/27 00:51:56;;;;;;;1.10;1.10;;;;;1.10;97591.00;;;;5076693;28;20700;-58
2024/01/27 00:54:27;;;;;;;1.33;1.33;;;;;1.20;97587.00;;;;5076044;28;20195;-58
2024/01/27 00:56:59;;;;;;;0.83;0.83;;;;;1.10;97595.00;;;;5076056;28;20199;-57
2024/01/27 00:59:29;;;;;;;5.97;1.73;;;;;1.10;97594.00;;;;5076733;28;20182;-57
2024/01/27 01:01:57;;;;;;;1.50;1.40;;;;;1.10;97599.00;;;;5075961;28;20215;-57
2024/01/27 01:04:24;;;;;;;0.97;0.97;;;;;1.20;97605.00;;;;5076025;28;20195;-57
2024/01/27 01:06:51;;;;;;;1.20;1.20;;;;;1.20;97596.00;;;;5075951;28;20198;-57
2024/01/27 01:09:19;;;;;;;2.73;1.80;;;;;1.20;97602.00;;;;5076464;28;20191;-57
2024/01/27 01:11:47;;;;;;;1.20;1.20;;;;;1.10;97596.00;;;;5076147;28;20558;-57
2024/01/27 01:14:17;;;;;;;1.67;1.30;;;;;1.20;97594.00;;;;5076021;28;20282;-57
2024/01/27 01:16:45;;;;;;;1.30;1.23;;;;;1.10;97600.00;;;;5076084;28;20195;-58
2024/01/27 01:19:13;;;;;;;1.83;1.73;;;;;1.00;97607.00;;;;5076683;28;20277;-57
2024/01/27 01:21:40;;;;;;;0.80;0.80;;;;;0.90;97605.00;;;;5075980;28;20195;-57
2024/01/27 01:24:08;;;;;;;1.00;1.00;;;;;0.80;97599.00;;;;5076300;28;20661;-58
2024/01/27 01:26:35;;;;;;;1.73;1.63;;;;;0.80;97604.00;;;;5076068;28;20190;-58
2024/01/27 01:29:03;;;;;;;1.90;1.27;;;;;0.60;97598.00;;;;5075626;28;20214;-58
2024/01/27 01:31:32;;;;;;;2.03;1.93;;;;;0.60;97611.00;;;;5078282;28;20195;-59
2024/01/27 01:33:59;;;;;;;1.07;1.07;;;;;0.70;97610.00;;;;5077654;28;20531;-58
2024/01/27 01:36:26;;;;;;;0.90;0.90;;;;;0.70;97601.00;;;;5075379;28;20221;-60
2024/01/27 01:38:54;;;;;;;0.80;0.80;;;;;0.70;97598.00;;;;5075450;28;20546;-58
2024/01/27 01:41:21;;;;;;;1.03;1.03;;;;;0.70;97612.00;;;;5077317;28;20559;-58
2024/01/27 01:43:49;;;;;;;1.13;1.13;;;;;0.50;97606.00;;;;5076374;28;20223;-58
2024/01/27 01:46:16;;;;;;;1.03;1.03;;;;;0.60;97600.00;;;;5076300;28;20183;-58
2024/01/27 01:48:45;;;;;;;1.53;1.43;;;;;0.50;97607.00;;;;5075599;28;20195;-58
2024/01/27 01:51:13;;;;;;;1.03;0.97;;;;;0.50;97607.00;;;;5077555;28;20562;-58
2024/01/27 01:53:41;;;;;;;0.60;0.60;;;;;0.60;97609.00;;;;5075047;28;20215;-58
2024/01/27 01:56:09;;;;;;;2.23;1.63;;;;;0.50;97611.00;;;;5075829;28;20214;-58
2024/01/27 01:58:37;;;;;;;0.60;0.60;;;;;0.40;97618.00;;;;5076494;28;20554;-58
2024/01/27 02:01:04;;;;;;;1.10;1.10;;;;;0.20;97626.00;;;;5074848;28;20304;-58
2024/01/27 02:03:32;;;;;;;0.70;0.70;;;;;0.30;97632.00;;;;5074861;28;20222;-58
2024/01/27 02:06:00;;;;;;;1.27;1.27;;;;;0.20;97632.00;;;;5077762;28;20631;-58
2024/01/27 02:08:28;;;;;;;0.70;0.70;;;;;0.20;97638.00;;;;5075235;28;20565;-58
2024/01/27 02:10:58;;;;;;;1.10;1.03;;;;;0.10;97634.00;;;;5076170;28;20265;-56
2024/01/27 02:13:26;;;;;;;0.90;0.90;;;;;0.10;97631.00;;;;5078210;28;20237;-56
2024/01/27 02:15:54;;;;;;;1.10;1.10;;;;;0.10;97642.00;;;;5076491;28;20224;-56
2024/01/27 02:18:21;;;;;;;1.17;1.13;;;;;-0.10;97626.00;;;;5077263;28;20201;-60
2024/01/27 02:20:49;;;;;;;0.90;0.90;;;;;-0.10;97632.00;;;;5074431;28;20196;-57
2024/01/27 02:23:18;;;;;;;0.60;0.60;;;;;-0.10;97641.00;;;;5076147;28;20214;-58
2024/01/27 02:25:46;;;;;;;0.90;0.90;;;;;0.10;97640.00;;;;5074738;28;20632;-58
2024/01/27 02:28:14;;;;;;;0.80;0.80;;;;;0.10;97637.00;;;;5076653;28;20205;-58
2024/01/27 02:30:41;;;;;;;0.83;0.83;;;;;0.20;97637.00;;;;5076682;28;20195;-58
2024/01/27 02:33:09;;;;;;;0.70;0.70;;;;;0.20;97647.00;;;;5076122;28;20693;-58
2024/01/27 02:35:36;;;;;;;1.83;1.67;;;;;0.20;97649.00;;;;5076966;28;20215;-59
2024/01/27 02:38:04;;;;;;;2.00;1.80;;;;;0.10;97647.00;;;;5075092;28;20201;-58
2024/01/27 02:40:31;;;;;;;0.87;0.87;;;;;0.00;97650.00;;;;5074574;28;20194;-58
2024/01/27 02:43:00;;;;;;;0.83;0.83;;;;;-0.10;97650.00;;;;5074714;28;20214;-58
2024/01/27 02:45:28;;;;;;;0.70;0.70;;;;;0.00;97649.00;;;;5075919;28;20680;-58
2024/01/27 02:47:57;;;;;;;2.23;1.27;;;;;-0.10;97661.00;;;;5058355;28;20202;-58
2024/01/27 02:50:28;;;;;;;2.10;1.27;;;;;-0.10;97653.00;;;;5057299;28;20205;-58
2024/01/27 02:52:56;;;;;;;1.20;1.20;;;;;-0.20;97661.00;;;;5074120;28;20215;-58
2024/01/27 02:55:23;;;;;;;1.20;1.10;;;;;-0.30;97664.00;;;;5075160;28;20228;-58
2024/01/27 02:57:51;;;;;;;0.80;0.80;;;;;-0.40;97661.00;;;;5057958;28;20562;-58
2024/01/27 03:00:20;;;;;;;0.90;0.90;;;;;-0.50;97662.00;;;;5075876;28;20196;-57
2024/01/27 03:02:47;;;;;;;0.80;0.80;;;;;-0.40;97667.00;;;;5055872;28;20214;-57
2024/01/27 03:05:14;;;;;;;0.90;0.90;;;;;-0.40;97661.00;;;;5073981;28;20197;-58
2024/01/27 03:07:42;;;;;;;0.70;0.70;;;;;-0.30;97661.00;;;;5074225;28;20205;-57
2024/01/27 03:10:10;;;;;;;0.67;0.67;;;;;-0.40;97660.00;;;;5077600;28;20185;-58
2024/01/27 03:12:38;;;;;;;0.70;0.70;;;;;-0.40;97652.00;;;;5075711;28;20249;-57
2024/01/27 03:15:10;;;;;;;2.00;1.37;;;;;-0.40;97663.00;;;;5074755;28;20682;-58
2024/01/27 03:17:38;;;;;;;1.17;1.17;;;;;-0.40;97660.00;;;;5076806;28;20193;-58
2024/01/27 03:20:08;;;;;;;0.60;0.60;;;;;-0.30;97674.00;;;;5075207;28;20194;-57
2024/01/27 03:22:35;;;;;;;1.17;1.17;;;;;-0.40;97668.00;;;;5075219;28;20217;-57
2024/01/27 03:25:03;;;;;;;1.47;1.37;;;;;-0.30;97687.00;;;;5074428;28;20657;-57
2024/01/27 03:27:33;;;;;;;1.43;1.27;;;;;-0.30;97686.00;;;;5076690;28;20206;-57
2024/01/27 03:30:04;;;;;;;2.07;1.90;;;;;-0.50;97678.00;;;;5078960;28;20209;-57
2024/01/27 03:32:32;;;;;;;1.13;1.13;;;;;-0.60;97689.00;;;;5077345;28;20574;-57
2024/01/27 03:35:01;;;;;;;0.80;0.80;;;;;-0.60;97701.00;;;;5073159;28;20536;-57
2024/01/27 03:37:29;;;;;;;0.70;0.70;;;;;-0.60;97699.00;;;;5075174;28;20662;-57
2024/01/27 03:39:56;;;;;;;0.90;0.90;;;;;-0.50;97695.00;;;;5075656;28;20201;-57
2024/01/27 03:42:29;;;;;;;1.10;1.10;;;;;-0.50;97696.00;;;;5075775;28;20618;-57
2024/01/27 03:44:56;;;;;;;0.70;0.70;;;;;-0.50;97689.00;;;;5074972;28;20233;-57
2024/01/27 03:47:23;;;;;;;1.37;1.27;;;;;-0.50;97705.00;;;;5075085;28;20191;-57
2024/01/27 03:49:50;;;;;;;1.50;1.30;;;;;-0.40;97695.00;;;;5073758;28;20281;-57
2024/01/27 03:52:19;;;;;;;1.00;1.00;;;;;-0.40;97703.00;;;;5073909;28;20711;-58
2024/01/27 03:54:46;;;;;;;0.70;0.70;;;;;-0.30;97706.00;;;;5074656;28;20201;-58
2024/01/27 03:57:14;;;;;;;1.03;1.03;;;;;-0.30;97717.00;;;;5073969;28;20220;-58
2024/01/27 03:59:42;;;;;;;0.80;0.80;;;;;-0.30;97715.00;;;;5074517;28;20602;-58
2024/01/27 04:02:09;;;;;;;1.00;1.00;;;;;-0.30;97711.00;;;;5073403;28;20230;-59
2024/01/27 04:04:37;;;;;;;0.50;0.50;;;;;-0.30;97713.00;;;;5073203;28;20201;-58
2024/01/27 04:07:04;;;;;;;0.83;0.83;;;;;-0.30;97715.00;;;;5074598;28;20645;-58
2024/01/27 04:09:33;;;;;;;0.70;0.70;;;;;-0.40;97708.00;;;;5059333;28;20194;-58
2024/01/27 04:12:00;;;;;;;0.70;0.70;;;;;-0.50;97703.00;;;;5074454;28;20217;-58
2024/01/27 04:14:28;;;;;;;0.60;0.60;;;;;-0.60;97714.00;;;;5074239;28;20197;-58
2024/01/27 04:16:55;;;;;;;0.67;0.67;;;;;-0.60;97705.00;;;;5072690;28;20220;-58
2024/01/27 04:19:23;;;;;;;0.67;0.67;;;;;-0.50;97718.00;;;;5074307;28;20205;-58
2024/01/27 04:21:50;;;;;;;0.70;0.70;;;;;-0.50;97717.00;;;;5074522;28;20215;-58
2024/01/27 04:24:18;;;;;;;1.07;0.97;;;;;-0.50;97718.00;;;;5074539;28;20194;-58
2024/01/27 04:26:46;;;;;;;1.03;0.93;;;;;-0.50;97721.00;;;;5074183;28;20190;-58
2024/01/27 04:29:15;;;;;;;0.87;0.87;;;;;-0.40;97720.00;;;;5074086;28;20196;-58
2024/01/27 04:31:42;;;;;;;0.90;0.90;;;;;-0.50;97729.00;;;;5055523;28;20234;-58
2024/01/27 04:34:13;;;;;;;1.40;1.30;;;;;-0.40;97728.00;;;;5073772;28;20283;-58
2024/01/27 04:36:41;;;;;;;1.37;1.07;;;;;-0.30;97719.00;;;;5074934;28;20319;-60
2024/01/27 04:39:08;;;;;;;0.80;0.80;;;;;-0.30;97715.00;;;;5075071;28;20194;-58
2024/01/27 04:41:35;;;;;;;0.97;0.97;;;;;-0.50;97713.00;;;;5055642;28;20205;-58
2024/01/27 04:44:04;;;;;;;0.97;0.97;;;;;-0.60;97718.00;;;;5073728;28;20199;-58
2024/01/27 04:46:32;;;;;;;1.00;1.00;;;;;-0.60;97728.00;;;;5075202;28;20647;-58
2024/01/27 04:48:59;;;;;;;0.63;0.63;;;;;-0.60;97724.00;;;;5073378;28;20189;-59
2024/01/27 04:51:27;;;;;;;0.90;0.90;;;;;-0.50;97732.00;;;;5055885;28;20561;-58
2024/01/27 04:53:54;;;;;;;1.23;1.23;;;;;-0.60;97737.00;;;;5074584;28;20194;-58
2024/01/27 04:56:21;;;;;;;1.10;1.10;;;;;-0.60;97731.00;;;;5075734;28;20229;-59
2024/01/27 04:58:49;;;;;;;0.80;0.80;;;;;-0.60;97730.00;;;;5078212;28;20200;-58
2024/01/27 05:01:18;;;;;;;0.80;0.80;;;;;-0.60;97728.00;;;;5077236;28;20192;-58
2024/01/27 05:03:45;;;;;;;0.93;0.93;;;;;-0.70;97744.00;;;;5076175;28;20212;-58
2024/01/27 05:06:13;;;;;;;1.27;1.23;;;;;-0.70;97734.00;;;;5076517;28;20186;-59
2024/01/27 05:08:43;;;;;;;0.77;0.77;;;;;-0.60;97734.00;;;;5076806;28;20195;-58
2024/01/27 05:11:11;;;;;;;1.20;1.20;;;;;-0.60;97730.00;;;;5077004;28;20194;-58
2024/01/27 05:13:38;;;;;;;0.70;0.70;;;;;-0.50;97717.00;;;;5076668;28;20206;-58
2024/01/27 05:16:06;;;;;;;0.93;0.93;;;;;-0.50;97721.00;;;;5076567;28;20590;-58
2024/01/27 05:18:35;;;;;;;0.70;0.70;;;;;-0.50;97708.00;;;;5076083;28;20219;-59
2024/01/27 05:21:03;;;;;;;1.10;1.10;;;;;-0.40;97726.00;;;;5076705;28;20189;-58
2024/01/27 05:23:31;;;;;;;6.30;1.23;;;;;-0.40;97726.00;;;;5075576;28;20223;-58
2024/01/27 05:25:58;;;;;;;1.00;1.00;;;;;-0.50;97723.00;;;;5075855;28;20197;-58
2024/01/27 05:28:26;;;;;;;1.07;1.07;;;;;-0.50;97720.00;;;;5077425;28;20197;-58
2024/01/27 05:30:54;;;;;;;0.80;0.80;;;;;-0.50;97725.00;;;;5075938;28;20192;-58
2024/01/27 05:33:22;;;;;;;1.20;1.20;;;;;-0.50;97727.00;;;;5075493;28;20216;-58
2024/01/27 05:35:51;;;;;;;2.93;1.23;;;;;-0.60;97729.00;;;;5076518;28;20193;-58
2024/01/27 05:38:18;;;;;;;1.63;1.53;;;;;-0.80;97716.00;;;;5076066;28;20190;-58
2024/01/27 05:40:49;;;;;;;1.10;1.10;;;;;-0.80;97707.00;;;;5075786;28;20193;-58
2024/01/27 05:43:17;;;;;;;0.70;0.70;;;;;-1.00;97719.00;;;;5075411;28;20221;-59
2024/01/27 05:45:45;;;;;;;0.80;0.80;;;;;-1.00;97729.00;;;;5058034;28;20203;-58
2024/01/27 05:48:13;;;;;;;0.70;0.70;;;;;-1.00;97719.00;;;;5075433;28;20193;-58
2024/01/27 05:50:46;;;;;;;1.00;1.00;;;;;-1.00;97728.00;;;;5075568;28;20191;-58
2024/01/27 05:53:15;;;;;;;1.20;1.20;;;;;-1.20;97724.00;;;;5057472;28;20212;-59
2024/01/27 05:55:43;;;;;;;0.93;0.93;;;;;-1.30;97729.00;;;;5075330;28;20547;-58
2024/01/27 05:58:10;;;;;;;0.90;0.90;;;;;-1.30;97727.00;;;;5056896;28;20248;-59
2024/01/27 06:00:38;;;;;;;1.10;1.10;;;;;-1.20;97733.00;;;;5058712;28;20539;-57
2024/01/27 06:03:05;;;;;;;1.73;1.60;;;;;-1.40;97723.00;;;;5076175;28;20209;-58
2024/01/27 06:05:33;;;;;;;1.33;1.27;;;;;-1.30;97735.00;;;;5075282;28;20203;-58
2024/01/27 06:08:00;;;;;;;3.47;1.77;;;;;-1.20;97738.00;;;;5075157;28;20302;-59
2024/01/27 06:10:30;;;;;;;0.70;0.70;;;;;-1.10;97735.00;;;;5076502;28;20217;-58
2024/01/27 06:12:58;;;;;;;0.77;0.77;;;;;-1.10;97732.00;;;;5075685;28;20216;-58
2024/01/27 06:15:25;;;;;;;1.27;1.20;;;;;-1.00;97738.00;;;;5074584;28;20266;-58
2024/01/27 06:17:53;;;;;;;1.07;1.07;;;;;-0.80;97741.00;;;;5076052;28;20213;-58
2024/01/27 06:20:20;;;;;;;1.03;1.03;;;;;-0.90;97735.00;;;;5076209;28;20222;-60
2024/01/27 06:22:48;;;;;;;1.87;1.77;;;;;-0.90;97746.00;;;;5074351;28;20213;-58
2024/01/27 06:25:16;;;;;;;2.23;1.80;;;;;-1.00;97729.00;;;;5075049;28;20192;-58
2024/01/27 06:27:45;;;;;;;0.80;0.80;;;;;-1.00;97743.00;;;;5076200;28;20273;-58
2024/01/27 06:30:14;;;;;;;1.60;1.00;;;;;-1.10;97737.00;;;;5056631;28;20197;-60
2024/01/27 06:32:41;;;;;;;1.40;1.30;;;;;-1.10;97739.00;;;;5074206;28;20241;-58
2024/01/27 06:35:09;;;;;;;1.00;1.00;;;;;-1.00;97743.00;;;;5074266;28;20197;-58
2024/01/27 06:37:38;;;;;;;0.70;0.70;;;;;-1.00;97744.00;;;;5075965;28;20281;-58
2024/01/27 06:40:09;;;;;;;1.13;1.10;;;;;-0.90;97745.00;;;;5074699;28;20173;-58
2024/01/27 06:42:37;;;;;;;0.80;0.80;;;;;-0.90;97754.00;;;;5074190;28;20239;-58
2024/01/27 06:45:07;;;;;;;1.00;1.00;;;;;-1.00;97753.00;;;;5076335;28;20731;-58
2024/01/27 06:47:35;;;;;;;2.83;2.20;;;;;-1.00;97744.00;;;;5075654;28;20189;-58
2024/01/27 06:50:03;;;;;;;1.37;1.20;;;;;-1.10;97747.00;;;;5077241;28;20223;-59
2024/01/27 06:52:30;;;;;;;1.97;1.07;;;;;-1.00;97750.00;;;;5075029;28;20217;-58
2024/01/27 06:54:58;;;;;;;0.90;0.90;;;;;-1.10;97752.00;;;;5076581;28;20200;-59
2024/01/27 06:57:26;;;;;;;1.60;1.50;;;;;-1.20;97738.00;;;;5074441;28;20221;-56
2024/01/27 06:59:56;;;;;;;1.53;1.43;;;;;-1.10;97741.00;;;;5057558;28;20729;-58
2024/01/27 07:02:33;;;;;;;1.23;0.97;;;;;-1.20;97746.00;;;;5076439;28;20281;-58
2024/01/27 07:05:00;;;;;;;0.97;0.97;;;;;-1.20;97744.00;;;;5075483;28;20180;-59
2024/01/27 07:07:29;;;;;;;1.23;1.23;;;;;-1.30;97755.00;;;;5075694;28;20585;-59
2024/01/27 07:10:00;;;;;;;1.40;1.30;;;;;-1.40;97749.00;;;;5077935;28;20578;-57
2024/01/27 07:12:32;;;;;;;2.87;2.40;;;;;-1.30;97751.00;;;;5075578;28;20223;-57
2024/01/27 07:15:00;;;;;;;3.20;2.77;;;;;-1.20;97753.00;;;;5074756;28;20738;-57
2024/01/27 07:17:30;;;;;;;2.57;2.07;;;;;-1.30;97743.00;;;;5072932;28;20205;-56
2024/01/27 07:19:58;;;;;;;2.10;2.00;;;;;-1.30;97751.00;;;;5078426;28;20538;-58
2024/01/27 07:22:25;;;;;;;1.87;1.77;;;;;-1.40;97765.00;;;;5076256;28;20215;-58
2024/01/27 07:24:53;;;;;;;3.30;2.73;;;;;-1.20;97770.00;;;;5076045;28;20191;-61
2024/01/27 07:27:20;;;;;;;3.80;2.67;;;;;-1.30;97757.00;;;;5075208;28;20202;-59
2024/01/27 07:29:48;;;;;;;2.17;1.97;;;;;-1.40;97758.00;;;;5074886;28;20199;-60
2024/01/27 07:32:15;;;;;;;1.90;1.80;;;;;-1.40;97759.00;;;;5074089;28;20217;-61
2024/01/27 07:34:47;;;;;;;2.73;2.50;;;;;-1.40;97753.00;;;;5075899;28;20196;-61
2024/01/27 07:37:14;;;;;;;2.97;2.77;;;;;-1.40;97755.00;;;;5074469;28;20223;-58
2024/01/27 07:39:42;;;;;;;3.27;2.70;;;;;-1.50;97760.00;;;;5075648;28;20196;-59
2024/01/27 07:42:10;;;;;;;3.03;2.77;;;;;-1.50;97761.00;;;;5073582;28;20207;-59
2024/01/27 07:44:40;;;;;;;3.97;2.13;;;;;-1.30;97772.00;;;;5074360;28;20205;-58
2024/01/27 07:47:08;;;;;;;3.37;3.07;;;;;-1.20;97758.00;;;;5076061;28;20554;-58
2024/01/27 07:49:36;;;;;;;5.33;2.60;;;;;-1.10;97757.00;;;;5073425;28;20192;-59
2024/01/27 07:52:05;;;;;;;2.43;2.20;;;;;-0.90;97756.00;;;;5075370;28;20216;-58
2024/01/27 07:54:38;;;;;;;3.27;3.00;;;;;-0.70;97753.00;;;;5075543;28;20261;-58
2024/01/27 07:57:06;;;;;;;5.70;3.00;;;;;-0.80;97707.00;;;;5073254;28;20236;-58
2024/01/27 07:59:33;;;;;;;1.87;1.77;;;;;-0.80;97758.00;;;;5074952;28;20190;-58
2024/01/27 08:02:01;;;;;;;2.43;2.27;;;;;-0.70;97754.00;;;;5075681;28;20213;-58
2024/01/27 08:04:30;;;;;;;2.70;2.20;;;;;-0.50;97759.00;;;;5075662;28;20194;-58
2024/01/27 08:07:09;;;;;;;1.10;1.10;;;;;-0.30;97756.00;;;;5058187;28;20204;-58
2024/01/27 08:09:38;;;;;;;1.57;1.40;;;;;-0.50;97748.00;;;;5074547;28;20173;-57
2024/01/27 08:12:08;;;;;;;5.40;2.43;;;;;-0.30;97744.00;;;;5077684;28;20262;-57
2024/01/27 08:14:36;;;;;;;2.10;1.57;;;;;-0.40;97739.00;;;;5075717;28;20195;-57
2024/01/27 08:17:07;;;;;;;0.90;0.90;;;;;-0.30;97756.00;;;;5075700;28;20228;-57
2024/01/27 08:19:35;;;;;;;1.17;1.03;;;;;-0.40;97760.00;;;;5079049;28;20194;-57
2024/01/27 08:22:09;;;;;;;2.53;2.13;;;;;-0.30;97745.00;;;;5079499;28;20229;-58
2024/01/27 08:24:40;;;;;;;1.87;1.70;;;;;-0.30;97740.00;;;;5077805;28;20673;-58
2024/01/27 08:27:13;;;;;;;1.03;1.00;;;;;-0.10;97729.00;;;;5073845;28;20675;-58
2024/01/27 08:29:42;;;;;;;1.60;1.50;;;;;0.10;97731.00;;;;5075124;28;20688;-58
2024/01/27 08:32:13;;;;;;;1.13;1.13;;;;;0.10;97742.00;;;;5077817;28;20212;-58
2024/01/27 08:34:47;;;;;;;1.00;1.00;;;;;0.10;97745.00;;;;5078589;28;20223;-58
2024/01/27 08:37:21;;;;;;;1.73;1.30;;;;;0.00;97735.00;;;;5078988;28;20206;-59
2024/01/27 08:39:50;;;;;;;0.80;0.80;;;;;0.00;97732.00;;;;5077911;28;20186;-59
2024/01/27 08:42:21;;;;;;;1.47;1.37;;;;;0.30;97728.00;;;;5077385;28;20263;-58
2024/01/27 08:44:49;;;;;;;1.70;1.57;;;;;0.50;97725.00;;;;5078438;28;20255;-58
2024/01/27 08:47:17;;;;;;;1.13;1.13;;;;;0.80;97725.00;;;;5080019;28;20190;-59
2024/01/27 08:49:44;;;;;;;1.30;1.20;;;;;0.80;97734.00;;;;5077720;28;20195;-59
2024/01/27 08:52:11;;;;;;;1.00;1.00;;;;;0.80;97731.00;;;;5077744;28;20214;-58
2024/01/27 08:54:43;;;;;;;2.10;2.00;;;;;0.80;97732.00;;;;5077726;28;20194;-57
2024/01/27 08:57:11;;;;;;;1.03;1.03;;;;;1.00;97737.00;;;;5077840;28;20217;-58
2024/01/27 08:59:39;;;;;;;4.30;2.07;;;;;1.10;97745.00;;;;5078447;28;20197;-59
2024/01/27 09:02:06;;;;;;;1.10;1.10;;;;;1.10;97740.00;;;;5077070;28;20231;-58
2024/01/27 09:04:34;;;;;;;1.47;1.37;;;;;1.00;97748.00;;;;5076176;28;20196;-58
2024/01/27 09:07:01;;;;;;;1.30;1.20;;;;;1.00;97747.00;;;;5076713;28;20202;-59
2024/01/27 09:09:33;;;;;;;2.23;1.33;;;;;1.30;97757.00;;;;5080156;28;20199;-59
2024/01/27 09:12:28;;;;;;;1.47;1.37;;;;;1.30;97759.00;;;;5076301;28;20250;-59
2024/01/27 09:14:55;;;;;;;1.13;1.13;;;;;1.70;97767.00;;;;5076150;28;20202;-58
2024/01/27 09:17:24;;;;;;;0.80;0.80;;;;;2.00;97765.00;;;;5076743;28;20261;-59
2024/01/27 09:19:51;;;;;;;1.10;1.10;;;;;2.10;97754.00;;;;5076913;28;20199;-60
2024/01/27 09:22:19;;;;;;;1.50;1.40;;;;;2.10;97762.00;;;;5057931;28;20219;-59
2024/01/27 09:24:46;;;;;;;1.60;1.43;;;;;2.20;97756.00;;;;5057893;28;20209;-58
2024/01/27 09:27:15;;;;;;;0.90;0.90;;;;;2.10;97750.00;;;;5076665;28;20199;-60
2024/01/27 09:29:43;;;;;;;0.90;0.90;;;;;1.80;97744.00;;;;5076975;28;20187;-60
2024/01/27 09:32:11;;;;;;;1.10;1.10;;;;;1.90;97744.00;;;;5077205;28;20329;-59
2024/01/27 09:34:43;;;;;;;0.83;0.83;;;;;1.90;97741.00;;;;5075546;28;20176;-59
2024/01/27 09:37:10;;;;;;;1.57;1.47;;;;;1.90;97747.00;;;;5076625;28;20648;-60
2024/01/27 09:39:38;;;;;;;1.40;1.30;;;;;1.90;97754.00;;;;5077046;28;20206;-60
2024/01/27 09:42:13;;;;;;;1.37;1.33;;;;;1.90;97756.00;;;;5075620;28;20211;-60
2024/01/27 09:44:45;;;;;;;0.93;0.93;;;;;1.90;97765.00;;;;5076483;28;20187;-59
2024/01/27 09:47:14;;;;;;;0.90;0.90;;;;;1.90;97756.00;;;;5076618;28;20180;-60
2024/01/27 09:49:42;;;;;;;0.97;0.97;;;;;2.00;97765.00;;;;5076285;28;20648;-59
2024/01/27 09:52:32;;;;;;;1.43;1.33;;;;;2.00;97773.00;;;;5075788;28;20690;-59
2024/01/27 09:55:00;;;;;;;1.10;1.00;;;;;2.00;97775.00;;;;5075633;28;20191;-58
2024/01/27 09:57:28;;;;;;;0.97;0.97;;;;;2.30;97762.00;;;;5075690;28;20215;-59
2024/01/27 09:59:58;;;;;;;1.40;1.30;;;;;2.40;97761.00;;;;5075919;28;20202;-59
2024/01/27 10:02:26;;;;;;;0.93;0.93;;;;;2.40;97753.00;;;;5075876;28;20223;-60
2024/01/27 10:05:06;;;;;;;0.93;0.93;;;;;2.40;97762.00;;;;5075326;28;20270;-58
2024/01/27 10:07:34;;;;;;;0.90;0.90;;;;;2.40;97753.00;;;;5075568;28;20512;-58
2024/01/27 10:10:02;;;;;;;1.00;1.00;;;;;2.50;97754.00;;;;5075591;28;20187;-60
2024/01/27 10:12:31;;;;;;;1.80;1.47;;;;;2.80;97756.00;;;;5075576;28;20230;-58
2024/01/27 10:15:02;;;;;;;1.17;1.03;;;;;3.00;97761.00;;;;5075013;28;20210;-57
2024/01/27 10:17:35;;;;;;;1.43;1.33;;;;;3.30;97766.00;;;;5075500;28;20179;-58
2024/01/27 10:20:08;;;;;;;1.70;1.60;;;;;3.40;97761.00;;;;5057002;28;20305;-58
2024/01/27 10:22:42;;;;;;;1.17;1.17;;;;;3.60;97756.00;;;;5074496;28;20215;-58
2024/01/27 10:25:10;;;;;;;1.43;1.33;;;;;3.70;97745.00;;;;5056764;28;20195;-58
2024/01/27 10:27:38;;;;;;;1.97;1.87;;;;;3.60;97744.00;;;;5076448;28;20189;-58
2024/01/27 10:30:23;;;;;;;1.30;1.30;;;;;4.00;97745.00;;;;5075050;28;20218;-58
2024/01/27 10:33:01;;;;;;;0.87;0.87;;;;;4.10;97739.00;;;;5075330;28;20211;-59
2024/01/27 10:35:28;;;;;;;0.87;0.87;;;;;4.40;97739.00;;;;5074798;28;20208;-58
2024/01/27 10:37:57;;;;;;;0.90;0.90;;;;;4.40;97726.00;;;;5074632;28;20239;-58
2024/01/27 10:40:25;;;;;;;1.00;1.00;;;;;4.40;97732.00;;;;5074240;28;20615;-58
2024/01/27 10:43:01;;;;;;;1.13;1.13;;;;;4.40;97728.00;;;;5074298;28;20210;-59
2024/01/27 10:45:35;;;;;;;1.33;1.23;;;;;4.50;97723.00;;;;5074098;28;20211;-58
2024/01/27 10:48:04;;;;;;;1.03;1.03;;;;;4.40;97718.00;;;;5074283;28;20188;-58
2024/01/27 10:50:34;;;;;;;3.90;2.00;;;;;4.60;97726.00;;;;5074016;28;20205;-58
2024/01/27 10:53:04;;;;;;;1.07;1.07;;;;;4.30;97729.00;;;;5073682;28;20220;-60
2024/01/27 10:55:34;;;;;;;1.40;1.37;;;;;4.50;97721.00;;;;5075203;28;20191;-58
2024/01/27 10:58:03;;;;;;;1.13;1.13;;;;;4.80;97724.00;;;;5074160;28;20216;-58
2024/01/27 11:00:33;;;;;;;0.90;0.90;;;;;4.90;97724.00;;;;5075282;28;20198;-60
2024/01/27 11:03:04;;;;;;;1.00;1.00;;;;;5.00;97736.00;;;;5073981;28;20205;-58
2024/01/27 11:05:36;;;;;;;0.90;0.90;;;;;5.00;97727.00;;;;5073890;28;20186;-56
2024/01/27 11:08:05;;;;;;;1.03;1.03;;;;;4.80;97721.00;;;;5074040;28;20183;-57
2024/01/27 11:10:35;;;;;;;6.80;1.67;;;;;4.60;97721.00;;;;5073948;28;20555;-57
2024/01/27 11:13:04;;;;;;;1.40;1.40;;;;;5.10;97713.00;;;;5074213;28;20243;-58
2024/01/27 11:15:33;;;;;;;0.97;0.97;;;;;5.50;97705.00;;;;5074265;28;20294;-57
2024/01/27 11:18:02;;;;;;;1.13;1.13;;;;;5.70;97701.00;;;;5073792;28;20674;-57
2024/01/27 11:20:36;;;;;;;1.07;1.07;;;;;5.70;97692.00;;;;5075317;28;20757;-57
2024/01/27 11:23:11;;;;;;;1.00;1.00;;;;;6.00;97687.00;;;;5074251;28;20215;-57
2024/01/27 11:25:38;;;;;;;1.27;1.23;;;;;6.40;97693.00;;;;5073893;28;20198;-58
2024/01/27 11:28:20;;;;;;;0.80;0.80;;;;;6.80;97681.00;;;;5073876;28;20183;-57
2024/01/27 11:30:50;;;;;;;1.00;1.00;;;;;6.70;97685.00;;;;5074163;28;20175;-57
2024/01/27 11:33:19;;;;;;;1.70;1.43;;;;;7.00;97697.00;;;;5073978;28;20226;-57
2024/01/27 11:35:46;;;;;;;1.00;1.00;;;;;7.50;97702.00;;;;5074442;28;20196;-57
2024/01/27 11:38:14;;;;;;;1.23;1.23;;;;;7.90;97705.00;;;;5075148;28;20215;-58
2024/01/27 11:40:50;;;;;;;0.97;0.97;;;;;8.30;97686.00;;;;5073645;28;20191;-57
2024/01/27 11:43:18;;;;;;;1.73;1.63;;;;;9.00;97699.00;;;;5073619;28;20218;-58
2024/01/27 11:45:56;;;;;;;1.03;1.03;;;;;8.20;97682.00;;;;5074041;28;20196;-57
2024/01/27 11:48:24;;;;;;;1.00;1.00;;;;;8.20;97684.00;;;;5074428;28;20217;-57
2024/01/27 11:51:05;;;;;;;1.20;1.17;;;;;7.10;97679.00;;;;5074328;28;20195;-57
2024/01/27 11:53:33;;;;;;;1.00;1.00;;;;;6.90;97666.00;;;;5073212;28;20702;-58
2024/01/27 11:56:01;;;;;;;0.97;0.97;;;;;7.90;97663.00;;;;5073609;28;20202;-57
2024/01/27 11:58:30;;;;;;;0.83;0.83;;;;;8.20;97647.00;;;;5074340;28;20300;-57
2024/01/27 12:01:00;;;;;;;1.13;1.13;;;;;9.20;97644.00;;;;5073523;28;20203;-60
2024/01/27 12:03:28;;;;;;;1.57;1.47;;;;;9.40;97640.00;;;;5077071;28;20301;-58
2024/01/27 12:05:56;;;;;;;1.20;1.10;;;;;10.70;97646.00;;;;5079873;28;20361;-57
2024/01/27 12:08:25;;;;;;;2.23;1.20;;;;;10.50;97628.00;;;;5080816;28;20202;-58
2024/01/27 12:10:54;;;;;;;0.80;0.80;;;;;12.20;97632.00;;;;5082937;28;20223;-58
2024/01/27 12:13:22;;;;;;;0.70;0.70;;;;;12.70;97631.00;;;;5080402;28;20583;-59
2024/01/27 12:15:50;;;;;;;1.27;0.97;;;;;12.90;97613.00;;;;5078546;28;20195;-58
2024/01/27 12:18:19;;;;;;;2.83;1.33;;;;;14.50;97599.00;;;;5077585;28;20612;-58
2024/01/27 12:20:48;;;;;;;1.50;1.40;;;;;15.10;97589.00;;;;5078559;28;20187;-60
2024/01/27 12:23:15;;;;;;;0.90;0.90;;;;;13.60;97581.00;;;;5076804;28;20218;-58
2024/01/27 12:25:53;;;;;;;1.47;1.47;;;;;15.40;97583.00;;;;5076736;28;20195;-58
2024/01/27 12:28:20;;;;;;;1.57;1.47;;;;;16.10;97592.00;;;;5078898;28;20654;-58
2024/01/27 12:30:49;;;;;;;1.53;1.43;;;;;16.80;97597.00;;;;5077464;28;20196;-58